createdAt,value
2016-09-16T00:00:04.624Z,16.81
2016-09-16T00:01:04.647Z,16.76
2016-09-16T00:02:04.667Z,16.75
2016-09-16T00:03:04.695Z,16.78
2016-09-16T00:04:04.720Z,16.78
2016-09-16T00:05:04.746Z,16.78
2016-09-16T00:06:04.769Z,16.76
2016-09-16T00:07:04.798Z,16.73
2016-09-16T00:08:04.832Z,16.73
2016-09-16T00:09:04.850Z,16.67
2016-09-16T00:10:04.875Z,16.73
2016-09-16T00:11:04.897Z,16.67
2016-09-16T00:12:04.936Z,16.71
2016-09-16T00:13:04.952Z,16.78
2016-09-16T00:14:04.972Z,16.7
2016-09-16T00:15:04.998Z,16.68
2016-09-16T00:16:05.019Z,16.64
2016-09-16T00:17:05.050Z,16.66
2016-09-16T00:18:05.378Z,16.67
2016-09-16T00:19:05.100Z,16.66
2016-09-16T00:20:05.122Z,16.61
2016-09-16T00:21:05.147Z,16.61
2016-09-16T00:22:05.172Z,16.52
2016-09-16T00:23:05.200Z,16.53
2016-09-16T00:24:05.233Z,16.48
2016-09-16T00:25:05.253Z,16.5
2016-09-16T00:26:20.198Z,16.43
2016-09-16T00:27:05.304Z,16.49
2016-09-16T00:28:05.333Z,16.57
2016-09-16T00:29:05.351Z,16.58
2016-09-16T00:30:05.377Z,16.5
2016-09-16T00:31:05.397Z,16.52
2016-09-16T00:32:05.439Z,16.42
2016-09-16T00:33:05.455Z,16.49
2016-09-16T00:34:05.482Z,16.46
2016-09-16T00:35:05.505Z,16.38
2016-09-16T00:36:05.528Z,16.49
2016-09-16T00:37:05.558Z,16.49
2016-09-16T00:38:05.578Z,16.41
2016-09-16T00:39:05.611Z,16.53
2016-09-16T00:40:05.789Z,16.46
2016-09-16T00:41:05.649Z,16.45
2016-09-16T00:42:20.654Z,16.3
2016-09-16T00:43:05.706Z,16.5
2016-09-16T00:44:20.652Z,16.46
2016-09-16T00:45:05.756Z,16.42
2016-09-16T00:46:05.777Z,16.33
2016-09-16T00:47:05.801Z,16.33
2016-09-16T00:48:05.826Z,16.42
2016-09-16T00:49:05.854Z,16.45
2016-09-16T00:50:05.929Z,16.24
2016-09-16T00:51:05.902Z,16.27
2016-09-16T00:52:05.927Z,16.3
2016-09-16T00:53:05.965Z,16.35
2016-09-16T00:54:05.984Z,16.34
2016-09-16T00:55:06.020Z,16.3
2016-09-16T00:56:06.039Z,16.35
2016-09-16T00:57:06.078Z,16.27
2016-09-16T00:58:21.021Z,16.23
2016-09-16T00:59:06.133Z,16.24
2016-09-16T01:00:06.145Z,16.27
2016-09-16T01:01:06.166Z,16.09
2016-09-16T01:02:21.121Z,16.14
2016-09-16T01:03:21.146Z,16.09
2016-09-16T01:04:06.241Z,16.14
2016-09-16T01:05:06.264Z,16.14
2016-09-16T01:06:06.303Z,16.14
2016-09-16T01:07:06.320Z,16.11
2016-09-16T01:08:06.348Z,16.21
2016-09-16T01:09:06.365Z,16.11
2016-09-16T01:10:06.380Z,16.15
2016-09-16T01:11:06.430Z,16.05
2016-09-16T01:12:06.447Z,16.09
2016-09-16T01:13:06.479Z,16.08
2016-09-16T01:14:21.409Z,16.02
2016-09-16T01:15:21.429Z,16.07
2016-09-16T01:17:06.587Z,16.12
2016-09-16T01:18:06.595Z,16.11
2016-09-16T01:19:06.622Z,16.02
2016-09-16T01:20:06.647Z,16.01
2016-09-16T01:21:06.673Z,15.94
2016-09-16T01:22:06.691Z,15.93
2016-09-16T01:23:06.728Z,15.86
2016-09-16T01:24:06.742Z,15.92
2016-09-16T01:25:06.773Z,15.93
2016-09-16T01:26:06.811Z,15.89
2016-09-16T01:27:06.805Z,15.9
2016-09-16T01:28:06.862Z,15.86
2016-09-16T01:29:21.779Z,15.9
2016-09-16T01:30:06.902Z,15.86
2016-09-16T01:31:21.829Z,15.87
2016-09-16T01:32:06.931Z,15.9
2016-09-16T01:33:06.981Z,15.89
2016-09-16T01:34:06.993Z,15.82
2016-09-16T01:35:07.021Z,15.89
2016-09-16T01:37:07.053Z,15.8
2016-09-16T01:38:07.144Z,15.68
2016-09-16T01:39:07.130Z,15.71
2016-09-16T01:40:07.141Z,15.72
2016-09-16T01:41:07.156Z,15.71
2016-09-16T01:42:07.201Z,15.69
2016-09-16T01:43:07.217Z,15.75
2016-09-16T01:44:07.242Z,15.71
2016-09-16T01:45:07.284Z,15.72
2016-09-16T01:46:07.309Z,15.71
2016-09-16T01:47:07.324Z,15.72
2016-09-16T01:48:07.338Z,15.72
2016-09-16T01:49:07.385Z,15.67
2016-09-16T01:50:22.372Z,15.67
2016-09-16T01:51:07.417Z,15.68
2016-09-16T01:52:07.451Z,15.53
2016-09-16T01:53:07.472Z,15.57
2016-09-16T01:54:07.495Z,15.59
2016-09-16T01:55:07.535Z,15.6
2016-09-16T01:56:07.544Z,15.53
2016-09-16T01:57:07.566Z,15.57
2016-09-16T01:58:07.595Z,15.53
2016-09-16T01:59:07.620Z,15.53
2016-09-16T02:00:07.633Z,15.59
2016-09-16T02:01:22.584Z,15.64
2016-09-16T02:02:07.695Z,15.54
2016-09-16T02:03:07.734Z,15.53
2016-09-16T02:04:07.744Z,15.5
2016-09-16T02:05:07.764Z,15.46
2016-09-16T02:07:07.814Z,15.51
2016-09-16T02:08:07.826Z,15.47
2016-09-16T02:09:07.867Z,15.5
2016-09-16T02:10:07.897Z,15.47
2016-09-16T02:11:07.923Z,15.5
2016-09-16T02:12:07.938Z,15.44
2016-09-16T02:13:07.948Z,15.41
2016-09-16T02:14:08.007Z,15.43
2016-09-16T02:15:08.020Z,15.44
2016-09-16T02:16:08.043Z,15.39
2016-09-16T02:17:22.994Z,15.27
2016-09-16T02:19:08.111Z,15.23
2016-09-16T02:20:23.062Z,15.39
2016-09-16T02:21:23.086Z,15.29
2016-09-16T02:22:08.180Z,15.38
2016-09-16T02:24:08.242Z,15.34
2016-09-16T02:25:08.254Z,15.35
2016-09-16T02:26:08.284Z,15.31
2016-09-16T02:27:08.303Z,15.34
2016-09-16T02:28:08.345Z,15.23
2016-09-16T02:29:08.346Z,15.31
2016-09-16T02:30:08.369Z,15.27
2016-09-16T02:31:08.409Z,15.28
2016-09-16T02:32:08.436Z,15.35
2016-09-16T02:33:23.389Z,15.25
2016-09-16T02:34:08.486Z,15.29
2016-09-16T02:35:08.518Z,15.21
2016-09-16T02:36:08.519Z,15.2
2016-09-16T02:38:08.625Z,15.19
2016-09-16T02:39:08.626Z,15.25
2016-09-16T02:40:08.643Z,15.14
2016-09-16T02:41:08.656Z,15.16
2016-09-16T02:42:08.700Z,15.13
2016-09-16T02:43:08.697Z,15.11
2016-09-16T02:44:08.749Z,15.13
2016-09-16T02:45:08.774Z,15.09
2016-09-16T02:46:08.779Z,15.03
2016-09-16T02:47:08.801Z,14.94
2016-09-16T02:48:08.829Z,15.06
2016-09-16T02:49:23.773Z,14.98
2016-09-16T02:50:08.898Z,14.95
2016-09-16T02:51:08.970Z,15.06
2016-09-16T02:52:08.934Z,15.09
2016-09-16T02:53:08.945Z,15.11
2016-09-16T02:54:08.964Z,15.1
2016-09-16T02:55:09.001Z,15.13
2016-09-16T02:56:09.027Z,15.09
2016-09-16T02:57:09.205Z,15.09
2016-09-16T02:58:09.080Z,15.09
2016-09-16T02:59:09.098Z,15.03
2016-09-16T03:00:09.137Z,15.03
2016-09-16T03:01:09.456Z,15.03
2016-09-16T03:02:09.172Z,15.03
2016-09-16T03:03:09.214Z,15.06
2016-09-16T03:04:24.149Z,14.92
2016-09-16T03:05:09.256Z,15.03
2016-09-16T03:06:09.271Z,14.98
2016-09-16T03:07:09.298Z,14.96
2016-09-16T03:08:09.330Z,14.98
2016-09-16T03:09:09.348Z,14.96
2016-09-16T03:10:09.365Z,15.03
2016-09-16T03:11:09.403Z,14.94
2016-09-16T03:12:09.410Z,14.86
2016-09-16T03:13:09.448Z,14.92
2016-09-16T03:14:09.477Z,14.89
2016-09-16T03:15:09.506Z,14.92
2016-09-16T03:16:09.528Z,14.81
2016-09-16T03:17:09.556Z,14.83
2016-09-16T03:18:09.581Z,14.84
2016-09-16T03:19:09.588Z,14.83
2016-09-16T03:20:09.631Z,14.91
2016-09-16T03:21:09.660Z,14.78
2016-09-16T03:22:09.688Z,14.78
2016-09-16T03:23:09.688Z,14.81
2016-09-16T03:24:09.726Z,14.78
2016-09-16T03:25:09.729Z,14.8
2016-09-16T03:26:09.770Z,14.77
2016-09-16T03:27:09.803Z,14.75
2016-09-16T03:28:09.813Z,14.72
2016-09-16T03:29:09.839Z,14.69
2016-09-16T03:30:09.871Z,14.61
2016-09-16T03:31:09.890Z,14.65
2016-09-16T03:32:09.898Z,14.61
2016-09-16T03:33:09.923Z,14.72
2016-09-16T03:34:10.271Z,14.62
2016-09-16T03:35:09.986Z,14.77
2016-09-16T03:36:24.943Z,14.7
2016-09-16T03:37:10.038Z,14.73
2016-09-16T03:38:10.061Z,14.77
2016-09-16T03:39:25.012Z,14.72
2016-09-16T03:40:10.443Z,14.81
2016-09-16T03:41:10.136Z,14.75
2016-09-16T03:42:10.176Z,14.81
2016-09-16T03:43:10.195Z,14.81
2016-09-16T03:44:10.201Z,14.75
2016-09-16T03:45:10.226Z,14.72
2016-09-16T03:46:10.269Z,14.68
2016-09-16T03:47:10.312Z,14.75
2016-09-16T03:48:10.311Z,14.77
2016-09-16T03:49:10.637Z,14.77
2016-09-16T03:50:10.368Z,14.81
2016-09-16T03:51:10.378Z,14.75
2016-09-16T03:52:25.318Z,14.65
2016-09-16T03:53:10.429Z,14.69
2016-09-16T03:54:10.474Z,14.65
2016-09-16T03:55:25.405Z,14.69
2016-09-16T03:56:10.492Z,14.65
2016-09-16T03:57:10.534Z,14.73
2016-09-16T03:58:10.552Z,14.6
2016-09-16T03:59:10.898Z,14.64
2016-09-16T04:00:10.612Z,14.6
2016-09-16T04:01:10.619Z,14.68
2016-09-16T04:02:10.649Z,14.64
2016-09-16T04:03:10.967Z,14.65
2016-09-16T04:04:10.688Z,14.68
2016-09-16T04:05:10.720Z,14.62
2016-09-16T04:06:10.757Z,14.64
2016-09-16T04:07:11.077Z,14.68
2016-09-16T04:08:25.716Z,14.62
2016-09-16T04:09:10.826Z,14.58
2016-09-16T04:10:11.147Z,14.64
2016-09-16T04:11:10.858Z,14.65
2016-09-16T04:12:25.825Z,14.62
2016-09-16T04:16:11.003Z,14.65
2016-09-16T04:17:11.029Z,14.62
2016-09-16T04:18:11.032Z,14.7
2016-09-16T04:19:11.071Z,14.62
2016-09-16T04:20:11.378Z,14.72
2016-09-16T04:21:11.121Z,14.69
2016-09-16T04:22:11.145Z,14.52
2016-09-16T04:23:11.477Z,14.52
2016-09-16T04:24:26.112Z,14.64
2016-09-16T04:25:11.220Z,14.64
2016-09-16T04:26:11.241Z,14.6
2016-09-16T04:27:11.260Z,14.58
2016-09-16T04:28:26.210Z,14.61
2016-09-16T04:29:26.240Z,14.6
2016-09-16T04:30:11.340Z,14.54
2016-09-16T04:31:11.365Z,14.61
2016-09-16T04:32:11.390Z,14.55
2016-09-16T04:33:11.427Z,14.6
2016-09-16T04:34:11.451Z,14.54
2016-09-16T04:35:11.743Z,14.57
2016-09-16T04:36:11.483Z,14.54
2016-09-16T04:37:11.527Z,14.61
2016-09-16T04:38:11.533Z,14.57
2016-09-16T04:39:26.485Z,14.52
2016-09-16T04:40:26.490Z,14.62
2016-09-16T04:41:11.621Z,14.64
2016-09-16T04:43:11.668Z,14.51
2016-09-16T04:44:11.675Z,14.47
2016-09-16T04:45:11.706Z,14.6
2016-09-16T04:46:11.730Z,14.51
2016-09-16T04:47:11.756Z,14.69
2016-09-16T04:48:11.811Z,14.58
2016-09-16T04:49:11.814Z,14.61
2016-09-16T04:50:11.819Z,14.61
2016-09-16T04:51:11.840Z,14.61
2016-09-16T04:52:12.161Z,14.55
2016-09-16T04:53:11.888Z,14.51
2016-09-16T04:54:11.914Z,14.58
2016-09-16T04:55:11.989Z,14.61
2016-09-16T04:56:11.961Z,14.68
2016-09-16T04:57:11.983Z,14.64
2016-09-16T04:58:12.006Z,14.54
2016-09-16T04:59:26.967Z,14.6
2016-09-16T05:00:12.053Z,14.6
2016-09-16T05:01:12.084Z,14.61
2016-09-16T05:02:12.105Z,14.5
2016-09-16T05:03:12.131Z,14.6
2016-09-16T05:04:12.161Z,14.68
2016-09-16T05:05:12.474Z,14.68
2016-09-16T05:06:12.203Z,14.61
2016-09-16T05:07:12.235Z,14.65
2016-09-16T05:08:27.178Z,14.77
2016-09-16T05:09:12.290Z,14.77
2016-09-16T05:10:12.300Z,14.75
2016-09-16T05:11:27.266Z,14.77
2016-09-16T05:12:12.361Z,14.81
2016-09-16T05:14:12.407Z,14.83
2016-09-16T05:15:27.358Z,14.84
2016-09-16T05:16:12.446Z,14.94
2016-09-16T05:17:12.501Z,14.91
2016-09-16T05:18:12.495Z,15.06
2016-09-16T05:19:12.528Z,15.06
2016-09-16T05:20:12.570Z,15.07
2016-09-16T05:21:12.567Z,15.09
2016-09-16T05:22:12.601Z,15.16
2016-09-16T05:23:12.627Z,15.2
2016-09-16T05:24:12.668Z,15.23
2016-09-16T05:25:12.665Z,15.23
2016-09-16T05:26:13.010Z,15.28
2016-09-16T05:27:27.647Z,15.14
2016-09-16T05:28:12.760Z,15.31
2016-09-16T05:29:12.768Z,15.31
2016-09-16T05:30:12.790Z,15.29
2016-09-16T05:31:12.821Z,15.39
2016-09-16T05:32:12.904Z,15.39
2016-09-16T05:33:12.871Z,15.44
2016-09-16T05:35:13.220Z,15.46
2016-09-16T05:36:12.966Z,15.6
2016-09-16T05:37:12.965Z,15.68
2016-09-16T05:38:13.006Z,15.72
2016-09-16T05:39:13.050Z,15.69
2016-09-16T05:40:13.049Z,15.69
2016-09-16T05:41:13.059Z,15.68
2016-09-16T05:42:13.087Z,15.75
2016-09-16T05:43:28.040Z,15.78
2016-09-16T05:44:28.061Z,15.72
2016-09-16T05:45:13.169Z,15.82
2016-09-16T05:46:13.192Z,15.74
2016-09-16T05:47:28.154Z,15.87
2016-09-16T05:51:13.314Z,16.01
2016-09-16T05:52:13.334Z,16
2016-09-16T05:53:13.370Z,16.09
2016-09-16T05:54:13.392Z,16.27
2016-09-16T05:55:13.413Z,16.49
2016-09-16T05:56:13.433Z,16.68
2016-09-16T05:57:13.477Z,17.01
2016-09-16T05:58:13.490Z,17.19
2016-09-16T05:59:28.437Z,17.52
2016-09-16T06:00:13.542Z,17.68
2016-09-16T06:01:13.585Z,17.78
2016-09-16T06:02:13.600Z,17.97
2016-09-16T06:03:13.627Z,18.17
2016-09-16T06:04:13.649Z,18.17
2016-09-16T06:05:13.674Z,18.25
2016-09-16T06:06:13.697Z,18.5
2016-09-16T06:07:13.736Z,18.47
2016-09-16T06:08:13.760Z,18.65
2016-09-16T06:09:13.781Z,18.75
2016-09-16T06:10:13.813Z,18.88
2016-09-16T06:11:13.861Z,18.67
2016-09-16T06:12:13.863Z,18.95
2016-09-16T06:13:28.829Z,18.94
2016-09-16T06:14:28.853Z,18.88
2016-09-16T06:16:13.983Z,19.18
2016-09-16T06:17:14.332Z,19.29
2016-09-16T06:18:14.067Z,19.59
2016-09-16T06:19:14.079Z,19.65
2016-09-16T06:20:14.100Z,19.77
2016-09-16T06:21:14.129Z,19.74
2016-09-16T06:22:14.162Z,19.91
2016-09-16T06:23:14.192Z,20.03
2016-09-16T06:24:14.226Z,20.2
2016-09-16T06:25:14.257Z,20.26
2016-09-16T06:26:14.319Z,20.38
2016-09-16T06:27:14.343Z,20.47
2016-09-16T06:29:14.379Z,20.54
2016-09-16T06:30:14.407Z,20.42
2016-09-16T06:31:29.365Z,20.35
2016-09-16T06:32:14.524Z,20.42
2016-09-16T06:33:29.448Z,20.48
2016-09-16T06:34:14.544Z,20.33
2016-09-16T06:35:14.573Z,20.52
2016-09-16T06:36:14.601Z,20.79
2016-09-16T06:37:14.653Z,20.92
2016-09-16T06:38:14.663Z,21.17
2016-09-16T06:39:14.713Z,21.32
2016-09-16T06:40:14.733Z,21.34
2016-09-16T06:41:14.778Z,21.25
2016-09-16T06:42:14.796Z,21.03
2016-09-16T06:43:14.828Z,21.29
2016-09-16T06:44:15.099Z,21.19
2016-09-16T06:45:14.898Z,21.37
2016-09-16T06:46:29.860Z,21.43
2016-09-16T06:47:14.960Z,21.61
2016-09-16T06:49:15.033Z,21.84
2016-09-16T06:50:15.063Z,21.88
2016-09-16T06:51:15.107Z,22.09
2016-09-16T06:52:15.119Z,22.14
2016-09-16T06:53:15.161Z,22.03
2016-09-16T06:55:15.229Z,22.2
2016-09-16T06:56:15.269Z,22
2016-09-16T06:57:15.308Z,21.86
2016-09-16T06:58:15.353Z,21.96
2016-09-16T06:59:30.286Z,22.07
2016-09-16T07:00:15.415Z,22
2016-09-16T07:01:15.427Z,21.91
2016-09-16T07:02:30.386Z,21.92
2016-09-16T07:03:15.867Z,22.09
2016-09-16T07:04:15.522Z,22.24
2016-09-16T07:05:15.565Z,22.21
2016-09-16T07:06:15.590Z,22.17
2016-09-16T07:07:15.626Z,22.22
2016-09-16T07:08:15.673Z,22.39
2016-09-16T07:09:15.705Z,22.47
2016-09-16T07:10:15.736Z,22.7
2016-09-16T07:11:15.757Z,22.67
2016-09-16T07:12:15.799Z,22.85
2016-09-16T07:13:15.840Z,22.98
2016-09-16T07:14:30.798Z,23.25
2016-09-16T07:15:15.932Z,23.1
2016-09-16T07:16:15.929Z,23.35
2016-09-16T07:17:15.966Z,23.46
2016-09-16T07:18:30.929Z,23.75
2016-09-16T07:19:16.036Z,23.84
2016-09-16T07:20:16.071Z,23.97
2016-09-16T07:22:16.134Z,24.02
2016-09-16T07:23:16.181Z,24.13
2016-09-16T07:25:16.250Z,24.39
2016-09-16T07:26:16.283Z,24.42
2016-09-16T07:27:16.322Z,24.73
2016-09-16T07:28:16.365Z,24.76
2016-09-16T07:29:16.385Z,24.96
2016-09-16T07:30:16.441Z,24.61
2016-09-16T07:31:16.472Z,24.37
2016-09-16T07:32:16.509Z,24.62
2016-09-16T07:33:16.521Z,24.77
2016-09-16T07:34:31.487Z,24.93
2016-09-16T07:36:16.646Z,25.06
2016-09-16T07:37:16.684Z,25.1
2016-09-16T07:38:16.997Z,25.25
2016-09-16T07:39:16.720Z,25.5
2016-09-16T07:40:31.692Z,25.57
2016-09-16T07:41:16.799Z,25.36
2016-09-16T07:42:16.824Z,25.57
2016-09-16T07:43:16.870Z,25.87
2016-09-16T07:44:16.895Z,25.9
2016-09-16T07:45:16.937Z,26.33
2016-09-16T07:46:16.962Z,26.47
2016-09-16T07:48:17.055Z,26.43
2016-09-16T07:49:31.996Z,26.45
2016-09-16T07:51:17.136Z,26.58
2016-09-16T07:52:17.184Z,26.55
2016-09-16T07:53:17.217Z,26.91
2016-09-16T07:54:17.246Z,26.76
2016-09-16T07:55:17.283Z,26.67
2016-09-16T07:56:17.319Z,26.57
2016-09-16T07:57:17.356Z,26.66
2016-09-16T07:58:17.386Z,26.76
2016-09-16T07:59:17.427Z,26.69
2016-09-16T08:00:17.443Z,26.52
2016-09-16T08:01:32.412Z,26.45
2016-09-16T08:02:17.550Z,26.44
2016-09-16T08:03:17.575Z,26.73
2016-09-16T08:04:17.595Z,26.75
2016-09-16T08:05:17.624Z,26.72
2016-09-16T08:06:17.656Z,26.73
2016-09-16T08:07:17.688Z,26.36
2016-09-16T08:08:17.739Z,26.37
2016-09-16T08:09:17.771Z,26.44
2016-09-16T08:11:17.825Z,26.55
2016-09-16T08:12:17.923Z,26.63
2016-09-16T08:13:17.898Z,26.75
2016-09-16T08:14:17.943Z,26.99
2016-09-16T08:15:17.963Z,27.14
2016-09-16T08:16:18.006Z,27.17
2016-09-16T08:17:18.041Z,27.17
2016-09-16T08:18:18.084Z,27
2016-09-16T08:19:18.107Z,27.21
2016-09-16T08:20:18.141Z,27.4
2016-09-16T08:21:33.106Z,27.39
2016-09-16T08:22:18.207Z,27.55
2016-09-16T08:23:18.244Z,27.32
2016-09-16T08:24:18.273Z,27.24
2016-09-16T08:25:18.331Z,27.54
2016-09-16T08:26:18.340Z,27.62
2016-09-16T08:27:18.385Z,27.6
2016-09-16T08:28:18.409Z,27.51
2016-09-16T08:29:18.446Z,27.13
2016-09-16T08:30:18.474Z,26.95
2016-09-16T08:31:18.526Z,26.7
2016-09-16T08:32:18.554Z,26.88
2016-09-16T08:33:18.595Z,27.21
2016-09-16T08:34:18.614Z,27.39
2016-09-16T08:35:18.656Z,27.44
2016-09-16T08:36:33.610Z,27.39
2016-09-16T08:37:33.641Z,27.44
2016-09-16T08:38:18.774Z,27.02
2016-09-16T08:39:18.788Z,26.65
2016-09-16T08:40:18.836Z,26.57
2016-09-16T08:41:18.863Z,26.44
2016-09-16T08:43:18.922Z,26.45
2016-09-16T08:44:18.960Z,26.8
2016-09-16T08:45:19.003Z,26.72
2016-09-16T08:46:19.027Z,26.82
2016-09-16T08:47:19.081Z,27.09
2016-09-16T08:48:19.094Z,27.04
2016-09-16T08:49:19.144Z,27.17
2016-09-16T08:50:34.088Z,27.34
2016-09-16T08:51:19.201Z,27.44
2016-09-16T08:52:19.243Z,27.65
2016-09-16T08:53:34.204Z,27.46
2016-09-16T08:54:19.296Z,27.41
2016-09-16T08:55:19.354Z,27.55
2016-09-16T08:56:19.362Z,27.6
2016-09-16T08:58:19.455Z,27.66
2016-09-16T08:59:19.476Z,27.75
2016-09-16T09:00:19.807Z,27.96
2016-09-16T09:01:19.533Z,28.12
2016-09-16T09:02:19.570Z,28.49
2016-09-16T09:03:19.600Z,28.48
2016-09-16T09:04:19.684Z,28.54
2016-09-16T09:05:19.672Z,28.62
2016-09-16T09:06:19.709Z,28.66
2016-09-16T09:07:19.741Z,28.7
2016-09-16T09:08:19.769Z,28.67
2016-09-16T09:09:34.730Z,28.59
2016-09-16T09:10:19.845Z,28.61
2016-09-16T09:11:19.878Z,28.73
2016-09-16T09:12:20.217Z,28.86
2016-09-16T09:13:19.946Z,29.11
2016-09-16T09:14:19.980Z,28.83
2016-09-16T09:15:20.061Z,28.89
2016-09-16T09:16:20.050Z,28.67
2016-09-16T09:17:20.078Z,28.54
2016-09-16T09:18:20.113Z,28.58
2016-09-16T09:19:20.155Z,28.68
2016-09-16T09:20:20.183Z,28.71
2016-09-16T09:21:20.223Z,28.81
2016-09-16T09:22:20.276Z,28.68
2016-09-16T09:23:20.286Z,28.71
2016-09-16T09:24:35.245Z,29.02
2016-09-16T09:25:20.357Z,29.28
2016-09-16T09:26:20.390Z,29.43
2016-09-16T09:27:20.424Z,29.65
2016-09-16T09:28:20.454Z,29.45
2016-09-16T09:29:20.494Z,29.48
2016-09-16T09:30:20.523Z,28.96
2016-09-16T09:31:20.563Z,29.09
2016-09-16T09:32:20.592Z,28.85
2016-09-16T09:33:20.623Z,28.85
2016-09-16T09:34:20.661Z,28.78
2016-09-16T09:35:20.690Z,28.73
2016-09-16T09:36:20.724Z,28.64
2016-09-16T09:37:20.771Z,28.83
2016-09-16T09:39:20.830Z,28.71
2016-09-16T09:40:20.867Z,28.52
2016-09-16T09:41:20.900Z,28.54
2016-09-16T09:42:20.936Z,28.54
2016-09-16T09:43:20.971Z,28.64
2016-09-16T09:44:21.001Z,28.73
2016-09-16T09:45:21.039Z,28.68
2016-09-16T09:46:21.069Z,28.61
2016-09-16T09:47:21.099Z,28.77
2016-09-16T09:48:21.132Z,28.81
2016-09-16T09:49:21.171Z,29.12
2016-09-16T09:50:21.204Z,29.27
2016-09-16T09:51:21.253Z,29.34
2016-09-16T09:52:21.272Z,29.46
2016-09-16T09:53:21.308Z,29.53
2016-09-16T09:54:21.338Z,29.98
2016-09-16T09:55:21.366Z,30.15
2016-09-16T09:56:36.332Z,29.86
2016-09-16T09:57:21.438Z,29.97
2016-09-16T09:58:21.479Z,29.97
2016-09-16T09:59:21.818Z,30.2
2016-09-16T10:00:21.545Z,30.15
2016-09-16T10:01:21.573Z,30.05
2016-09-16T10:02:21.605Z,30.1
2016-09-16T10:03:21.646Z,29.74
2016-09-16T10:04:21.672Z,29.43
2016-09-16T10:05:21.708Z,29.33
2016-09-16T10:06:21.742Z,29.36
2016-09-16T10:07:21.777Z,29.34
2016-09-16T10:08:21.859Z,29.48
2016-09-16T10:09:21.849Z,29.51
2016-09-16T10:10:36.805Z,29.42
2016-09-16T10:11:21.915Z,29.37
2016-09-16T10:12:36.868Z,29.04
2016-09-16T10:13:21.978Z,28.85
2016-09-16T10:14:22.014Z,28.88
2016-09-16T10:15:22.049Z,28.71
2016-09-16T10:16:22.076Z,28.64
2016-09-16T10:17:22.110Z,28.43
2016-09-16T10:18:37.130Z,28.27
2016-09-16T10:19:22.180Z,28.34
2016-09-16T10:21:22.249Z,28.04
2016-09-16T10:22:22.286Z,28.29
2016-09-16T10:23:22.325Z,28.49
2016-09-16T10:25:22.380Z,28.49
2016-09-16T10:27:22.448Z,28.49
2016-09-16T10:28:37.404Z,28.61
2016-09-16T10:29:22.517Z,28.71
2016-09-16T10:30:22.552Z,28.62
2016-09-16T10:31:22.584Z,28.68
2016-09-16T10:32:22.618Z,28.33
2016-09-16T10:33:22.644Z,28.34
2016-09-16T10:34:22.678Z,28.27
2016-09-16T10:35:22.715Z,28.34
2016-09-16T10:36:22.746Z,28.3
2016-09-16T10:37:22.777Z,28.41
2016-09-16T10:39:22.841Z,28.37
2016-09-16T10:40:22.872Z,28.33
2016-09-16T10:41:22.914Z,28.17
2016-09-16T10:42:22.946Z,27.94
2016-09-16T10:43:22.974Z,27.88
2016-09-16T10:44:37.933Z,28.02
2016-09-16T10:45:23.048Z,28.04
2016-09-16T10:46:23.072Z,28.07
2016-09-16T10:47:23.100Z,28.12
2016-09-16T10:48:23.135Z,28.33
2016-09-16T10:49:23.166Z,28.18
2016-09-16T10:50:23.202Z,28.24
2016-09-16T10:51:23.238Z,28.25
2016-09-16T10:52:23.266Z,28.12
2016-09-16T10:53:23.302Z,28.09
2016-09-16T10:54:23.331Z,28.12
2016-09-16T10:55:23.362Z,28.21
2016-09-16T10:56:23.393Z,28.17
2016-09-16T10:57:38.352Z,28.04
2016-09-16T10:58:23.459Z,28.17
2016-09-16T10:59:38.725Z,27.99
2016-09-16T11:01:23.551Z,27.72
2016-09-16T11:02:23.584Z,27.79
2016-09-16T11:03:23.614Z,27.97
2016-09-16T11:04:23.953Z,28.14
2016-09-16T11:05:23.680Z,28.29
2016-09-16T11:06:23.710Z,28.34
2016-09-16T11:07:23.744Z,28.36
2016-09-16T11:08:23.776Z,28.58
2016-09-16T11:10:23.840Z,28.66
2016-09-16T11:11:23.869Z,28.59
2016-09-16T11:12:23.896Z,28.46
2016-09-16T11:14:38.889Z,28.24
2016-09-16T11:15:23.997Z,28.27
2016-09-16T11:16:38.951Z,28.36
2016-09-16T11:17:24.054Z,28.31
2016-09-16T11:18:24.095Z,28.41
2016-09-16T11:19:24.119Z,28.44
2016-09-16T11:20:24.149Z,28.46
2016-09-16T11:21:24.244Z,28.36
2016-09-16T11:22:24.519Z,28.29
2016-09-16T11:23:24.250Z,28.25
2016-09-16T11:24:24.277Z,28.15
2016-09-16T11:25:24.311Z,28.17
2016-09-16T11:26:24.345Z,28.33
2016-09-16T11:27:24.369Z,28.3
2016-09-16T11:28:24.399Z,28.19
2016-09-16T11:29:24.432Z,28.14
2016-09-16T11:31:39.426Z,28.36
2016-09-16T11:32:24.528Z,28.54
2016-09-16T11:33:24.561Z,28.67
2016-09-16T11:34:24.591Z,28.54
2016-09-16T11:35:24.624Z,28.55
2016-09-16T11:36:24.658Z,28.46
2016-09-16T11:37:24.687Z,28.44
2016-09-16T11:38:24.714Z,28.54
2016-09-16T11:39:24.745Z,28.36
2016-09-16T11:40:24.776Z,28.44
2016-09-16T11:41:24.806Z,28.39
2016-09-16T11:42:24.845Z,28.34
2016-09-16T11:43:39.801Z,28.34
2016-09-16T11:45:24.932Z,28.44
2016-09-16T11:46:24.968Z,28.3
2016-09-16T11:47:39.929Z,28.44
2016-09-16T11:48:25.032Z,28.44
2016-09-16T11:49:25.058Z,28.31
2016-09-16T11:50:25.087Z,28.15
2016-09-16T11:51:25.120Z,28.18
2016-09-16T11:52:25.153Z,28.15
2016-09-16T11:53:25.189Z,28.18
2016-09-16T11:54:25.214Z,28.06
2016-09-16T11:55:25.242Z,27.99
2016-09-16T11:56:25.276Z,27.96
2016-09-16T11:58:25.341Z,28.09
2016-09-16T11:59:25.364Z,28.36
2016-09-16T12:00:25.400Z,28.39
2016-09-16T12:01:25.432Z,28.43
2016-09-16T12:02:25.475Z,28.49
2016-09-16T12:03:40.415Z,28.31
2016-09-16T12:04:40.447Z,28.12
2016-09-16T12:06:25.589Z,28.25
2016-09-16T12:07:25.617Z,28.14
2016-09-16T12:08:25.649Z,28.17
2016-09-16T12:09:25.686Z,28.11
2016-09-16T12:10:25.716Z,28.14
2016-09-16T12:11:25.741Z,28.24
2016-09-16T12:12:25.772Z,28.37
2016-09-16T12:13:25.808Z,28.48
2016-09-16T12:14:25.835Z,28.62
2016-09-16T12:15:25.874Z,28.67
2016-09-16T12:16:25.898Z,28.58
2016-09-16T12:17:25.928Z,28.81
2016-09-16T12:18:25.960Z,28.96
2016-09-16T12:19:40.915Z,29.16
2016-09-16T12:20:26.023Z,29.08
2016-09-16T12:21:26.057Z,29.05
2016-09-16T12:22:26.085Z,28.9
2016-09-16T12:23:26.111Z,28.89
2016-09-16T12:24:26.145Z,28.78
2016-09-16T12:25:26.178Z,28.78
2016-09-16T12:26:26.206Z,28.78
2016-09-16T12:27:26.240Z,28.74
2016-09-16T12:28:26.268Z,28.71
2016-09-16T12:29:26.317Z,28.71
2016-09-16T12:30:26.339Z,28.7
2016-09-16T12:31:41.290Z,28.78
2016-09-16T12:32:26.394Z,28.78
2016-09-16T12:33:26.425Z,28.8
2016-09-16T12:34:41.383Z,28.81
2016-09-16T12:35:26.488Z,28.78
2016-09-16T12:36:26.521Z,28.9
2016-09-16T12:37:26.551Z,28.86
2016-09-16T12:38:26.582Z,28.9
2016-09-16T12:39:26.619Z,29
2016-09-16T12:40:26.639Z,29.09
2016-09-16T12:41:26.673Z,29.23
2016-09-16T12:42:26.703Z,29.27
2016-09-16T12:43:26.733Z,29.21
2016-09-16T12:44:26.768Z,29.27
2016-09-16T12:45:26.796Z,29.33
2016-09-16T12:46:26.832Z,29.21
2016-09-16T12:48:26.899Z,29.39
2016-09-16T12:49:26.925Z,29.28
2016-09-16T12:50:26.955Z,29.36
2016-09-16T12:52:27.021Z,29.46
2016-09-16T12:53:27.047Z,29.65
2016-09-16T12:54:27.082Z,29.73
2016-09-16T12:55:27.110Z,29.92
2016-09-16T12:56:27.139Z,29.87
2016-09-16T12:57:27.174Z,29.83
2016-09-16T12:58:27.204Z,29.97
2016-09-16T12:59:27.237Z,30.01
2016-09-16T13:00:27.263Z,30.08
2016-09-16T13:01:27.300Z,30.16
2016-09-16T13:02:27.333Z,30.2
2016-09-16T13:04:27.388Z,30.31
2016-09-16T13:05:27.422Z,30.31
2016-09-16T13:06:42.676Z,30.27
2016-09-16T13:07:27.492Z,30.24
2016-09-16T13:08:27.521Z,30.2
2016-09-16T13:09:27.555Z,30.23
2016-09-16T13:10:27.585Z,30.22
2016-09-16T13:11:27.618Z,30.24
2016-09-16T13:12:27.643Z,30.13
2016-09-16T13:13:27.678Z,30.15
2016-09-16T13:14:27.705Z,30.19
2016-09-16T13:16:28.822Z,30.15
2016-09-16T13:17:27.859Z,30.01
2016-09-16T13:18:27.830Z,29.8
2016-09-16T13:19:27.866Z,29.86
2016-09-16T13:20:42.826Z,29.92
2016-09-16T13:21:27.927Z,29.92
2016-09-16T13:22:42.888Z,29.92
2016-09-16T13:23:42.913Z,29.89
2016-09-16T13:24:28.026Z,29.79
2016-09-16T13:25:28.056Z,29.63
2016-09-16T13:26:28.088Z,29.55
2016-09-16T13:27:28.119Z,29.57
2016-09-16T13:28:28.150Z,29.8
2016-09-16T13:29:28.180Z,29.92
2016-09-16T13:30:28.210Z,29.98
2016-09-16T13:31:28.243Z,29.97
2016-09-16T13:32:28.271Z,30.07
2016-09-16T13:33:28.302Z,30.15
2016-09-16T13:34:43.265Z,30.22
2016-09-16T13:35:28.370Z,30.31
2016-09-16T13:36:28.396Z,30.42
2016-09-16T13:37:28.436Z,30.46
2016-09-16T13:38:43.387Z,30.32